Time;durP1;ratioP1;P1;durP2;ratioP2;P2;SDS_P1;SDS_P2;PMS_P1;PMS_P2;Temp;Humidity;BMP_temperature;BMP_pressure;BME280_temperature;BME280_humidity;BME280_pressure;Samples;Min_cycle;Max_cycle;Signal;HPM_P1;HPM_P2
2023/05/18 00:01:40;;;;;;;5.38;4.47;;;11.70;99.90;;;;;;5038066;28;20029;-70
2023/05/18 00:04:07;;;;;;;8.40;4.57;;;11.70;99.90;;;;;;5036368;28;20017;-70
2023/05/18 00:06:32;;;;;;;9.82;4.20;;;11.70;99.90;;;;;;5036341;28;20503;-70
2023/05/18 00:08:58;;;;;;;7.88;4.05;;;11.60;99.90;;;;;;5035140;28;20076;-71
2023/05/18 00:11:24;;;;;;;7.15;4.40;;;11.60;99.90;;;;;;5028333;28;20398;-70
2023/05/18 00:13:49;;;;;;;14.05;8.95;;;11.60;99.90;;;;;;5033836;28;20105;-70
2023/05/18 00:16:15;;;;;;;6.10;4.32;;;11.60;99.90;;;;;;5035291;28;20034;-70
2023/05/18 00:18:41;;;;;;;6.68;4.32;;;11.50;99.90;;;;;;5032433;28;20033;-71
2023/05/18 00:21:07;;;;;;;4.90;4.32;;;11.50;99.90;;;;;;5034672;28;20027;-70
2023/05/18 00:23:34;;;;;;;8.65;4.45;;;11.50;99.90;;;;;;5037312;28;20018;-70
2023/05/18 00:26:01;;;;;;;8.40;4.47;;;11.40;99.90;;;;;;5037646;28;20032;-70
2023/05/18 00:28:28;;;;;;;7.68;4.20;;;11.40;99.90;;;;;;5037165;28;20013;-70
2023/05/18 00:30:54;;;;;;;6.75;4.25;;;11.40;99.90;;;;;;5037501;28;20056;-70
2023/05/18 00:33:20;;;;;;;5.70;3.97;;;11.40;99.90;;;;;;5035705;28;20036;-70
2023/05/18 00:35:46;;;;;;;7.95;4.75;;;11.40;99.90;;;;;;5037167;28;20070;-70
2023/05/18 00:38:14;;;;;;;7.50;4.60;;;11.40;99.90;;;;;;5037093;28;20037;-71
2023/05/18 00:40:40;;;;;;;8.02;4.82;;;11.40;99.90;;;;;;5037137;28;20448;-71
2023/05/18 00:43:06;;;;;;;7.05;4.30;;;11.40;99.90;;;;;;5035776;28;20022;-70
2023/05/18 00:45:32;;;;;;;7.00;4.38;;;11.40;99.90;;;;;;5037272;28;20022;-71
2023/05/18 00:47:58;;;;;;;7.82;4.30;;;11.40;99.90;;;;;;5036987;28;20025;-70
2023/05/18 00:50:24;;;;;;;8.05;5.35;;;11.40;99.90;;;;;;5036679;28;20462;-70
2023/05/18 00:52:51;;;;;;;5.57;4.30;;;11.40;99.90;;;;;;5037077;28;20017;-70
2023/05/18 00:55:17;;;;;;;9.43;4.68;;;11.30;99.90;;;;;;5037114;28;20026;-71
2023/05/18 00:57:44;;;;;;;5.45;4.20;;;11.30;99.90;;;;;;5036775;28;20025;-70
2023/05/18 01:00:12;;;;;;;7.53;4.50;;;11.30;99.90;;;;;;5035753;28;20037;-71
2023/05/18 01:02:44;;;;;;;7.55;4.03;;;11.30;99.90;;;;;;5036739;28;20017;-70
2023/05/18 01:05:11;;;;;;;5.55;4.57;;;11.20;99.90;;;;;;5036681;28;20022;-70
2023/05/18 01:07:38;;;;;;;4.97;3.95;;;11.20;99.90;;;;;;5035854;28;20174;-70
2023/05/18 01:10:04;;;;;;;8.80;4.90;;;11.20;99.90;;;;;;5025346;28;20030;-71
2023/05/18 01:12:55;;;;;;;5.30;4.18;;;11.10;99.90;;;;;;5025008;28;20398;-71
2023/05/18 01:15:34;;;;;;;7.05;4.47;;;11.00;99.90;;;;;;5035348;28;20116;-71
2023/05/18 01:18:22;;;;;;;6.72;4.35;;;11.00;99.90;;;;;;5036955;28;20053;-70
2023/05/18 01:21:12;;;;;;;5.35;4.53;;;11.00;99.90;;;;;;5036655;28;20024;-70
2023/05/18 01:24:20;;;;;;;5.10;4.57;;;11.00;99.90;;;;;;5035360;28;20021;-71
2023/05/18 01:26:49;;;;;;;6.35;4.45;;;11.00;99.90;;;;;;5036617;28;20025;-70
2023/05/18 01:29:19;;;;;;;8.77;4.93;;;11.00;99.90;;;;;;5036745;28;20025;-70
2023/05/18 01:31:45;;;;;;;8.77;4.18;;;11.00;99.90;;;;;;5036528;28;20021;-70
2023/05/18 01:34:11;;;;;;;7.43;4.75;;;11.00;99.90;;;;;;5036608;28;20033;-70
2023/05/18 01:36:36;;;;;;;8.23;4.50;;;11.00;99.90;;;;;;5036103;28;20022;-71
2023/05/18 01:39:02;;;;;;;9.50;4.97;;;11.00;99.90;;;;;;5036632;28;20056;-70
2023/05/18 01:41:30;;;;;;;8.55;5.28;;;11.00;99.90;;;;;;5036372;28;20021;-71
2023/05/18 01:44:18;;;;;;;6.88;4.80;;;11.00;99.90;;;;;;5035346;28;20022;-70
2023/05/18 01:47:00;;;;;;;6.45;4.80;;;11.00;99.90;;;;;;5036472;28;20432;-71
2023/05/18 01:49:35;;;;;;;11.15;5.05;;;11.00;99.90;;;;;;5036050;28;20029;-71
2023/05/18 01:52:05;;;;;;;7.10;4.72;;;11.00;99.90;;;;;;5036819;28;20026;-70
2023/05/18 01:54:32;;;;;;;6.28;4.20;;;11.00;99.90;;;;;;5040191;28;20028;-71
2023/05/18 01:56:59;;;;;;;5.55;4.43;;;11.00;99.90;;;;;;5040293;28;20454;-70
2023/05/18 01:59:25;;;;;;;7.53;4.60;;;11.00;99.90;;;;;;5038732;28;20053;-71
2023/05/18 02:01:51;;;;;;;7.72;5.65;;;11.00;99.90;;;;;;5040249;28;20052;-71
2023/05/18 02:04:17;;;;;;;9.65;5.10;;;11.00;99.90;;;;;;5038406;28;20021;-70
2023/05/18 02:06:42;;;;;;;8.85;5.32;;;11.00;99.90;;;;;;5040239;28;20497;-70
2023/05/18 02:09:08;;;;;;;8.30;5.32;;;11.00;99.90;;;;;;5035939;28;20136;-70
2023/05/18 02:11:34;;;;;;;6.88;4.40;;;10.90;99.90;;;;;;5030320;28;20025;-70
2023/05/18 02:14:00;;;;;;;6.07;4.82;;;10.80;99.90;;;;;;5036870;28;20031;-71
2023/05/18 02:16:25;;;;;;;7.18;4.78;;;10.80;99.90;;;;;;5037315;28;20017;-71
2023/05/18 02:18:52;;;;;;;10.45;4.78;;;10.80;99.90;;;;;;5036713;28;20037;-70
2023/05/18 02:21:18;;;;;;;17.27;6.50;;;10.70;99.90;;;;;;5037419;28;20021;-71
2023/05/18 02:23:43;;;;;;;8.70;4.82;;;10.60;99.90;;;;;;5039546;28;20026;-70
2023/05/18 02:26:09;;;;;;;11.32;4.43;;;10.60;99.90;;;;;;5039684;28;20014;-71
2023/05/18 02:28:38;;;;;;;6.43;4.45;;;10.50;99.90;;;;;;5039467;28;20040;-71
2023/05/18 02:31:10;;;;;;;7.05;4.63;;;10.50;99.90;;;;;;5039702;28;20023;-71
2023/05/18 02:33:39;;;;;;;7.03;4.93;;;10.50;99.90;;;;;;5038008;28;20100;-71
2023/05/18 02:36:12;;;;;;;9.85;4.95;;;10.50;99.90;;;;;;5038139;28;20049;-71
2023/05/18 02:38:42;;;;;;;10.48;5.05;;;10.50;99.90;;;;;;5039381;28;20029;-71
2023/05/18 02:41:09;;;;;;;7.20;4.90;;;10.40;99.90;;;;;;5039480;28;20017;-71
2023/05/18 02:43:35;;;;;;;6.30;5.00;;;10.40;99.90;;;;;;5039579;28;20445;-71
2023/05/18 02:46:02;;;;;;;6.82;4.88;;;10.30;99.90;;;;;;5039239;28;20029;-71
2023/05/18 02:48:28;;;;;;;6.47;4.93;;;10.30;99.90;;;;;;5039422;28;20033;-70
2023/05/18 02:50:54;;;;;;;6.32;5.15;;;10.30;99.90;;;;;;5038846;28;20087;-71
2023/05/18 02:53:20;;;;;;;5.72;4.78;;;10.20;99.90;;;;;;5039430;28;20037;-71
2023/05/18 02:55:47;;;;;;;6.72;4.45;;;10.20;99.90;;;;;;5039029;28;20489;-71
2023/05/18 02:58:16;;;;;;;7.38;5.07;;;10.20;99.90;;;;;;5039343;28;20085;-71
2023/05/18 03:00:42;;;;;;;7.75;5.30;;;10.20;99.90;;;;;;5037416;28;20026;-71
2023/05/18 03:03:14;;;;;;;5.82;5.07;;;10.10;99.90;;;;;;5038696;28;20811;-71
2023/05/18 03:05:41;;;;;;;9.00;6.03;;;10.10;99.90;;;;;;5037785;28;20013;-71
2023/05/18 03:08:09;;;;;;;9.88;5.47;;;10.10;99.90;;;;;;5038153;28;20045;-71
2023/05/18 03:10:35;;;;;;;8.20;4.50;;;10.10;99.90;;;;;;5026915;28;20081;-71
2023/05/18 03:13:01;;;;;;;7.95;5.10;;;10.00;99.90;;;;;;5037491;28;20025;-71
2023/05/18 03:15:30;;;;;;;5.90;4.95;;;10.00;99.90;;;;;;5033958;28;20401;-71
2023/05/18 03:17:58;;;;;;;8.88;5.88;;;10.00;99.90;;;;;;5036667;28;20132;-71
2023/05/18 03:20:24;;;;;;;7.20;5.47;;;10.00;99.90;;;;;;5036169;28;20049;-72
2023/05/18 03:22:50;;;;;;;9.48;4.60;;;10.00;99.90;;;;;;5037703;28;20430;-71
2023/05/18 03:25:16;;;;;;;7.57;5.18;;;10.00;99.90;;;;;;5038494;28;20072;-70
2023/05/18 03:27:41;;;;;;;13.00;5.80;;;9.90;99.90;;;;;;5038569;28;20029;-70
2023/05/18 03:30:08;;;;;;;7.90;5.78;;;9.90;99.90;;;;;;5037041;28;20056;-71
2023/05/18 03:32:35;;;;;;;9.20;5.00;;;9.90;99.90;;;;;;5037196;28;20057;-70
2023/05/18 03:35:04;;;;;;;8.07;4.88;;;9.80;99.90;;;;;;5024959;28;20052;-71
2023/05/18 03:37:30;;;;;;;7.78;4.93;;;9.80;99.90;;;;;;5021089;28;20026;-71
2023/05/18 03:40:07;;;;;;;10.00;5.35;;;9.80;99.90;;;;;;5022555;28;20020;-71
2023/05/18 03:42:33;;;;;;;6.47;4.70;;;9.80;99.90;;;;;;5020933;28;20443;-70
2023/05/18 03:44:58;;;;;;;8.57;5.55;;;9.80;99.90;;;;;;5021408;28;20398;-71
2023/05/18 03:47:24;;;;;;;9.90;4.93;;;9.70;99.90;;;;;;5031033;28;20083;-71
2023/05/18 03:49:50;;;;;;;6.70;5.10;;;9.70;99.90;;;;;;5036458;28;20520;-71
2023/05/18 03:52:21;;;;;;;7.38;5.45;;;9.70;99.90;;;;;;5038003;28;20025;-70
2023/05/18 03:54:48;;;;;;;9.35;5.55;;;9.70;99.90;;;;;;5026353;28;20017;-71
2023/05/18 03:57:17;;;;;;;8.32;5.47;;;9.70;99.90;;;;;;5036455;28;20033;-71
2023/05/18 03:59:43;;;;;;;9.82;5.55;;;9.60;99.90;;;;;;5038079;28;20073;-71
2023/05/18 04:02:10;;;;;;;6.38;5.10;;;9.60;99.90;;;;;;5037841;28;20101;-71
2023/05/18 04:04:36;;;;;;;7.57;5.72;;;9.60;99.90;;;;;;5036253;28;20075;-71
2023/05/18 04:07:04;;;;;;;6.75;5.05;;;9.60;99.90;;;;;;5037704;28;20036;-71
2023/05/18 04:09:30;;;;;;;5.68;4.95;;;9.60;99.90;;;;;;5031071;28;20025;-70
2023/05/18 04:11:56;;;;;;;8.05;5.32;;;9.60;99.90;;;;;;5031892;28;20077;-71
2023/05/18 04:14:26;;;;;;;7.75;5.22;;;9.60;99.90;;;;;;5036097;28;20087;-71
2023/05/18 04:16:53;;;;;;;8.43;6.30;;;9.60;99.90;;;;;;5033749;28;20029;-71
2023/05/18 04:19:20;;;;;;;5.75;5.13;;;9.60;99.90;;;;;;5033837;28;20042;-71
2023/05/18 04:21:47;;;;;;;7.32;4.90;;;9.70;99.90;;;;;;5033884;28;20033;-70
2023/05/18 04:24:13;;;;;;;6.60;5.55;;;9.70;99.90;;;;;;5036211;28;20017;-71
2023/05/18 04:26:41;;;;;;;9.60;5.55;;;9.70;99.90;;;;;;5037455;28;20040;-70
2023/05/18 04:29:09;;;;;;;5.70;4.53;;;9.60;99.90;;;;;;5037615;28;20029;-70
2023/05/18 04:31:40;;;;;;;9.70;5.30;;;9.70;99.90;;;;;;5036029;28;20037;-70
2023/05/18 04:34:07;;;;;;;8.73;4.93;;;9.70;99.90;;;;;;5037065;28;20066;-70
2023/05/18 04:36:33;;;;;;;7.60;4.97;;;9.70;99.90;;;;;;5036730;28;20033;-70
2023/05/18 04:39:06;;;;;;;8.65;6.65;;;9.70;99.90;;;;;;5037153;28;20073;-70
2023/05/18 04:41:33;;;;;;;6.80;5.03;;;9.70;99.90;;;;;;5037251;28;20029;-70
2023/05/18 04:43:59;;;;;;;6.32;5.05;;;9.70;99.90;;;;;;5037247;28;20014;-70
2023/05/18 04:46:25;;;;;;;10.15;5.43;;;9.70;99.90;;;;;;5036791;28;20115;-70
2023/05/18 04:48:51;;;;;;;6.60;5.15;;;9.70;99.90;;;;;;5037145;28;20083;-70
2023/05/18 04:51:20;;;;;;;5.93;5.32;;;9.70;99.90;;;;;;5035344;28;20025;-70
2023/05/18 04:53:48;;;;;;;7.43;4.78;;;9.70;99.90;;;;;;5037087;28;20458;-70
2023/05/18 04:56:15;;;;;;;7.97;4.68;;;9.80;99.90;;;;;;5035593;28;20461;-70
2023/05/18 04:58:44;;;;;;;7.00;4.85;;;9.80;99.90;;;;;;5035573;28;20418;-70
2023/05/18 05:01:11;;;;;;;5.93;5.20;;;9.80;99.90;;;;;;5034471;28;20503;-70
2023/05/18 05:03:36;;;;;;;10.60;6.25;;;9.80;99.90;;;;;;5036844;28;20044;-70
2023/05/18 05:06:02;;;;;;;8.18;4.90;;;9.80;99.90;;;;;;5036612;28;20055;-70
2023/05/18 05:08:28;;;;;;;10.60;6.38;;;9.90;99.90;;;;;;5036963;28;20402;-70
2023/05/18 05:10:53;;;;;;;9.20;5.30;;;9.90;99.90;;;;;;5019526;28;20021;-70
2023/05/18 05:13:19;;;;;;;7.00;4.53;;;10.00;99.90;;;;;;5016884;28;20030;-70
2023/05/18 05:15:45;;;;;;;7.28;5.20;;;10.00;99.90;;;;;;5018033;28;20034;-71
2023/05/18 05:18:11;;;;;;;10.75;4.78;;;10.00;99.90;;;;;;5016136;28;20096;-70
2023/05/18 05:20:36;;;;;;;6.03;4.60;;;10.10;99.90;;;;;;5021329;28;20021;-71
2023/05/18 05:23:02;;;;;;;9.23;5.18;;;10.10;99.90;;;;;;5036889;28;20014;-70
2023/05/18 05:25:27;;;;;;;6.85;4.75;;;10.10;99.90;;;;;;5034163;28;20034;-70
2023/05/18 05:27:53;;;;;;;9.38;5.57;;;10.20;99.90;;;;;;5038308;28;20037;-70
2023/05/18 05:30:19;;;;;;;7.40;5.63;;;10.20;99.90;;;;;;5040546;28;20025;-70
2023/05/18 05:32:45;;;;;;;5.97;4.47;;;10.20;99.90;;;;;;5039380;28;20035;-70
2023/05/18 05:35:10;;;;;;;6.30;5.00;;;10.30;99.90;;;;;;5040194;28;20040;-70
2023/05/18 05:37:36;;;;;;;8.88;6.32;;;10.30;99.90;;;;;;5040624;28;20108;-70
2023/05/18 05:40:05;;;;;;;9.32;5.07;;;10.30;99.90;;;;;;5040424;28;20025;-70
2023/05/18 05:42:30;;;;;;;8.07;4.80;;;10.40;99.90;;;;;;5039287;28;20018;-70
2023/05/18 05:44:56;;;;;;;8.73;5.50;;;10.40;99.90;;;;;;5040359;28;20022;-70
2023/05/18 05:47:22;;;;;;;8.15;5.10;;;10.50;99.90;;;;;;5040586;28;20026;-70
2023/05/18 05:49:47;;;;;;;7.25;5.22;;;10.50;99.90;;;;;;5039776;28;20025;-70
2023/05/18 05:52:13;;;;;;;7.53;5.18;;;10.50;99.90;;;;;;5040410;28;20057;-70
2023/05/18 05:54:40;;;;;;;7.80;5.80;;;10.60;99.90;;;;;;5040072;28;20037;-70
2023/05/18 05:57:06;;;;;;;7.25;6.38;;;10.60;99.90;;;;;;5040225;28;20025;-71
2023/05/18 05:59:31;;;;;;;6.40;4.47;;;10.60;99.90;;;;;;5040118;28;20033;-70
2023/05/18 06:01:57;;;;;;;6.80;5.07;;;10.60;99.90;;;;;;5040085;28;20024;-70
2023/05/18 06:04:23;;;;;;;8.30;5.75;;;10.60;99.90;;;;;;5038444;28;20025;-70
2023/05/18 06:06:48;;;;;;;10.10;4.85;;;10.70;99.90;;;;;;5039986;28;20072;-70
2023/05/18 06:09:14;;;;;;;5.50;4.38;;;10.70;99.90;;;;;;5035365;28;20026;-71
2023/05/18 06:11:41;;;;;;;7.57;5.72;;;10.80;99.90;;;;;;5026636;28;20029;-70
2023/05/18 06:14:06;;;;;;;8.20;4.47;;;10.90;99.90;;;;;;5033917;28;20030;-70
2023/05/18 06:16:32;;;;;;;8.60;5.10;;;10.90;99.90;;;;;;5028095;28;20610;-71
2023/05/18 06:18:58;;;;;;;10.93;5.18;;;11.00;99.90;;;;;;5032971;28;20060;-71
2023/05/18 06:21:23;;;;;;;9.35;5.63;;;11.00;99.90;;;;;;5039458;28;20029;-70
2023/05/18 06:23:49;;;;;;;7.20;4.70;;;11.00;99.90;;;;;;5038347;28;20092;-70
2023/05/18 06:26:15;;;;;;;8.63;4.75;;;11.10;99.90;;;;;;5039594;28;20037;-71
2023/05/18 06:28:41;;;;;;;7.18;4.75;;;11.10;99.90;;;;;;5039478;28;20040;-71
2023/05/18 06:31:07;;;;;;;8.82;5.20;;;11.20;99.90;;;;;;5039672;28;20021;-71
2023/05/18 06:33:33;;;;;;;9.07;4.47;;;11.20;99.90;;;;;;5038075;28;20025;-71
2023/05/18 06:35:59;;;;;;;7.32;4.68;;;11.20;99.90;;;;;;5037855;28;20417;-70
2023/05/18 06:38:24;;;;;;;8.65;4.75;;;11.30;99.90;;;;;;5038980;28;20021;-70
2023/05/18 06:40:50;;;;;;;6.53;5.07;;;11.30;99.90;;;;;;5038129;28;20022;-70
2023/05/18 06:43:15;;;;;;;7.28;5.10;;;11.30;99.90;;;;;;5039394;28;20071;-70
2023/05/18 06:45:41;;;;;;;6.15;4.55;;;11.30;99.90;;;;;;5039284;28;20029;-70
2023/05/18 06:48:07;;;;;;;6.65;4.45;;;11.30;99.90;;;;;;5039171;28;20037;-69
2023/05/18 06:50:33;;;;;;;7.53;5.05;;;11.20;99.90;;;;;;5037641;28;20018;-70
2023/05/18 06:52:58;;;;;;;6.38;4.78;;;11.20;99.90;;;;;;5038239;28;20515;-69
2023/05/18 06:55:24;;;;;;;6.95;5.05;;;11.20;99.90;;;;;;5032939;28;20026;-69
2023/05/18 06:57:51;;;;;;;9.95;4.90;;;11.10;99.90;;;;;;5030127;28;20036;-69
2023/05/18 07:00:18;;;;;;;6.53;5.38;;;11.10;99.90;;;;;;5022213;28;20032;-69
2023/05/18 07:02:44;;;;;;;12.68;4.72;;;11.10;99.90;;;;;;5023202;28;20093;-69
2023/05/18 07:05:10;;;;;;;7.00;5.72;;;11.10;99.90;;;;;;5030933;28;20021;-69
2023/05/18 07:07:36;;;;;;;8.10;4.78;;;11.10;99.90;;;;;;5038867;28;20072;-69
2023/05/18 07:10:03;;;;;;;6.32;4.55;;;11.10;99.90;;;;;;5036879;28;20398;-69
2023/05/18 07:12:29;;;;;;;8.18;4.78;;;11.20;99.90;;;;;;5026485;28;20029;-69
2023/05/18 07:14:54;;;;;;;9.82;5.05;;;11.10;99.90;;;;;;5038748;28;20037;-69
2023/05/18 07:17:21;;;;;;;8.68;4.50;;;11.10;99.90;;;;;;5038646;28;20127;-69
2023/05/18 07:19:46;;;;;;;6.82;4.65;;;11.10;99.90;;;;;;5035918;28;20037;-70
2023/05/18 07:22:12;;;;;;;7.25;4.38;;;11.20;99.90;;;;;;5038446;28;20032;-70
2023/05/18 07:24:38;;;;;;;7.65;5.03;;;11.20;99.90;;;;;;5038587;28;20450;-69
2023/05/18 07:27:04;;;;;;;6.88;4.97;;;11.20;99.90;;;;;;5037132;28;20025;-69
2023/05/18 07:29:30;;;;;;;8.57;5.20;;;11.20;99.90;;;;;;5032705;28;20506;-69
2023/05/18 07:31:55;;;;;;;8.07;4.95;;;11.30;99.90;;;;;;5030674;28;20048;-69
2023/05/18 07:34:22;;;;;;;8.02;5.18;;;11.30;99.90;;;;;;5025609;28;20030;-69
2023/05/18 07:36:48;;;;;;;5.32;4.43;;;11.40;99.90;;;;;;5036152;28;20026;-69
2023/05/18 07:39:17;;;;;;;7.20;4.63;;;11.40;99.90;;;;;;5033723;28;20029;-69
2023/05/18 07:41:47;;;;;;;6.28;4.28;;;11.50;99.90;;;;;;5036947;28;20017;-69
2023/05/18 07:44:13;;;;;;;7.90;4.97;;;11.60;99.90;;;;;;5023764;28;20104;-69
2023/05/18 07:46:39;;;;;;;7.18;5.07;;;11.60;99.90;;;;;;5031447;28;20068;-69
2023/05/18 07:49:05;;;;;;;6.60;4.80;;;11.60;99.90;;;;;;5032171;28;20032;-69
2023/05/18 07:51:31;;;;;;;9.35;5.47;;;11.60;99.90;;;;;;5035759;28;20029;-69
2023/05/18 07:53:56;;;;;;;13.38;5.13;;;11.60;99.90;;;;;;5032109;28;20040;-69
2023/05/18 07:56:25;;;;;;;9.35;5.03;;;11.60;99.90;;;;;;5028001;28;20037;-69
2023/05/18 07:58:51;;;;;;;9.02;4.93;;;11.60;99.90;;;;;;5031010;28;20067;-69
2023/05/18 08:01:17;;;;;;;11.70;5.65;;;11.60;99.90;;;;;;5031598;28;20025;-69
2023/05/18 08:03:42;;;;;;;7.93;4.75;;;11.60;99.90;;;;;;5033474;28;20024;-69
2023/05/18 08:06:08;;;;;;;4.50;3.97;;;11.70;99.90;;;;;;5034302;28;20029;-69
2023/05/18 08:08:37;;;;;;;6.70;4.55;;;11.70;99.90;;;;;;5035643;28;20026;-69
2023/05/18 08:11:03;;;;;;;8.07;4.93;;;11.70;99.90;;;;;;5034002;28;20374;-69
2023/05/18 08:13:29;;;;;;;7.32;4.80;;;11.80;99.90;;;;;;5030950;28;20065;-69
2023/05/18 08:15:55;;;;;;;7.93;4.93;;;11.90;99.90;;;;;;5034605;28;20029;-69
2023/05/18 08:18:21;;;;;;;5.55;4.85;;;11.80;99.90;;;;;;5034943;28;20704;-69
2023/05/18 08:20:48;;;;;;;7.40;4.60;;;11.90;99.90;;;;;;5033035;28;20052;-69
2023/05/18 08:23:14;;;;;;;8.07;4.97;;;11.90;99.90;;;;;;5032478;28;20408;-69
2023/05/18 08:25:40;;;;;;;8.32;4.75;;;12.00;99.90;;;;;;5029275;28;20025;-69
2023/05/18 08:28:06;;;;;;;8.77;5.25;;;12.10;99.90;;;;;;5033968;28;20101;-69
2023/05/18 08:30:31;;;;;;;7.90;4.75;;;12.20;99.90;;;;;;5034830;28;20447;-69
2023/05/18 08:32:57;;;;;;;8.25;5.10;;;12.20;99.90;;;;;;5031203;28;20470;-69
2023/05/18 08:35:23;;;;;;;8.00;5.40;;;12.30;99.90;;;;;;5034587;28;20022;-69
2023/05/18 08:37:49;;;;;;;11.48;4.63;;;12.40;99.90;;;;;;5035411;28;20073;-69
2023/05/18 08:40:15;;;;;;;7.78;4.80;;;12.50;99.90;;;;;;5034892;28;20017;-69
2023/05/18 08:42:51;;;;;;;7.15;4.53;;;12.50;99.90;;;;;;5029622;28;20029;-69
2023/05/18 08:45:41;;;;;;;8.38;4.97;;;12.60;99.90;;;;;;5031777;28;20013;-69
2023/05/18 08:48:09;;;;;;;7.88;4.55;;;12.60;99.90;;;;;;5033405;28;20025;-70
2023/05/18 08:50:39;;;;;;;7.25;4.90;;;12.60;99.90;;;;;;5033393;28;20120;-69
2023/05/18 08:53:05;;;;;;;7.85;5.13;;;12.60;99.90;;;;;;5029903;28;20032;-69
2023/05/18 08:55:38;;;;;;;5.85;4.63;;;12.80;99.90;;;;;;5032506;28;20560;-70
2023/05/18 08:58:06;;;;;;;12.68;4.60;;;12.90;99.90;;;;;;5033461;28;20025;-69
2023/05/18 09:00:32;;;;;;;5.55;4.72;;;13.00;99.90;;;;;;5031856;28;20104;-69
2023/05/18 09:02:58;;;;;;;6.80;4.47;;;13.10;99.90;;;;;;5027868;28;20055;-70
2023/05/18 09:05:24;;;;;;;10.27;5.07;;;13.20;99.90;;;;;;5033927;28;20100;-70
2023/05/18 09:07:50;;;;;;;9.55;4.80;;;13.30;99.90;;;;;;5033085;28;20091;-69
2023/05/18 09:10:16;;;;;;;8.95;4.57;;;13.30;99.90;;;;;;5034089;28;20033;-70
2023/05/18 09:12:45;;;;;;;11.15;5.72;;;13.40;99.90;;;;;;5028743;28;20025;-70
2023/05/18 09:15:15;;;;;;;5.78;4.13;;;13.50;99.90;;;;;;5034084;28;20059;-70
2023/05/18 09:17:40;;;;;;;6.93;4.53;;;13.60;99.90;;;;;;5029875;28;20088;-70
2023/05/18 09:20:07;;;;;;;13.23;5.68;;;13.70;99.90;;;;;;5032047;28;20116;-70
2023/05/18 09:22:40;;;;;;;8.10;3.92;;;14.00;99.90;;;;;;5034438;28;20067;-69
2023/05/18 09:25:12;;;;;;;8.48;3.90;;;14.10;99.90;;;;;;5031434;28;20057;-70
2023/05/18 09:27:38;;;;;;;8.13;5.50;;;14.30;99.90;;;;;;5029919;28;20032;-69
2023/05/18 09:30:08;;;;;;;10.23;3.97;;;14.40;99.90;;;;;;5033924;28;20021;-70
2023/05/18 09:32:35;;;;;;;7.00;4.53;;;14.40;99.90;;;;;;5030027;28;20033;-71
2023/05/18 09:35:08;;;;;;;6.88;4.57;;;14.50;99.90;;;;;;5034759;28;20049;-70
2023/05/18 09:37:33;;;;;;;6.25;3.58;;;14.70;99.90;;;;;;5034823;28;20033;-69
2023/05/18 09:40:00;;;;;;;7.35;4.25;;;14.70;99.90;;;;;;5034204;28;20029;-69
2023/05/18 09:42:36;;;;;;;5.57;3.97;;;14.70;99.90;;;;;;5029073;28;20033;-69
2023/05/18 09:45:18;;;;;;;8.38;4.43;;;14.80;99.90;;;;;;5029763;28;20022;-69
2023/05/18 09:47:45;;;;;;;6.47;3.67;;;14.90;99.90;;;;;;5032612;28;20375;-70
2023/05/18 09:50:11;;;;;;;6.68;3.92;;;15.00;99.90;;;;;;5031770;28;20150;-69
2023/05/18 09:52:44;;;;;;;7.22;4.25;;;15.00;99.90;;;;;;5031293;28;20398;-68
2023/05/18 09:55:11;;;;;;;9.05;4.40;;;15.00;99.90;;;;;;5034669;28;20018;-68
2023/05/18 09:57:55;;;;;;;8.32;4.10;;;15.10;99.90;;;;;;5031641;28;20029;-68
2023/05/18 10:00:20;;;;;;;9.48;4.38;;;15.20;99.90;;;;;;5028689;28;20133;-68
2023/05/18 10:02:49;;;;;;;5.93;3.85;;;15.30;99.90;;;;;;5033226;28;20053;-69
2023/05/18 10:05:22;;;;;;;5.20;3.85;;;15.30;99.90;;;;;;5030479;28;20046;-69
2023/05/18 10:07:50;;;;;;;6.85;3.95;;;15.40;99.90;;;;;;5032233;28;20037;-69
2023/05/18 10:10:25;;;;;;;14.73;5.18;;;15.50;99.90;;;;;;5031553;28;20497;-68
2023/05/18 10:12:51;;;;;;;7.97;3.97;;;15.50;99.90;;;;;;5031807;28;20551;-69
2023/05/18 10:15:19;;;;;;;10.45;4.63;;;15.40;99.90;;;;;;5038703;28;20028;-71
2023/05/18 10:17:49;;;;;;;6.70;3.95;;;15.40;99.90;;;;;;5036829;28;20410;-70
2023/05/18 10:20:20;;;;;;;5.55;3.35;;;15.40;99.90;;;;;;5037480;28;20048;-71
2023/05/18 10:22:47;;;;;;;5.22;3.95;;;15.50;99.90;;;;;;5035498;28;20363;-71
2023/05/18 10:25:20;;;;;;;8.68;3.85;;;15.50;99.90;;;;;;5036810;28;20017;-71
2023/05/18 10:27:53;;;;;;;7.82;4.55;;;15.40;99.90;;;;;;5035338;28;20032;-71
2023/05/18 10:30:19;;;;;;;6.35;4.28;;;15.40;99.90;;;;;;5035125;28;20029;-70
2023/05/18 10:32:45;;;;;;;8.02;4.03;;;15.70;99.90;;;;;;5034325;28;20032;-71
2023/05/18 10:35:12;;;;;;;6.10;4.00;;;15.90;99.90;;;;;;5033936;28;20029;-70
2023/05/18 10:37:40;;;;;;;11.30;4.05;;;16.00;99.90;;;;;;5034356;28;20061;-71
2023/05/18 10:40:08;;;;;;;6.68;3.50;;;15.90;99.90;;;;;;5035755;28;20024;-71
2023/05/18 10:42:35;;;;;;;6.38;3.50;;;16.30;99.90;;;;;;5034092;28;21459;-71
2023/05/18 10:45:02;;;;;;;5.53;3.88;;;16.40;99.90;;;;;;5032952;28;20793;-70
2023/05/18 10:47:28;;;;;;;8.25;4.03;;;16.50;99.90;;;;;;5036996;28;20034;-71
2023/05/18 10:49:54;;;;;;;9.18;4.60;;;16.70;99.90;;;;;;5035486;28;20022;-70
2023/05/18 10:52:20;;;;;;;7.68;3.90;;;16.70;99.90;;;;;;5036088;28;20557;-70
2023/05/18 10:54:48;;;;;;;9.35;4.13;;;16.70;99.90;;;;;;5031773;28;20029;-68
2023/05/18 10:57:18;;;;;;;9.23;4.30;;;16.70;99.90;;;;;;5037862;28;20029;-69
2023/05/18 10:59:46;;;;;;;5.57;2.87;;;16.80;99.90;;;;;;5035239;28;20052;-68
2023/05/18 11:02:15;;;;;;;8.93;3.70;;;17.00;99.90;;;;;;5031983;28;20048;-71
2023/05/18 11:04:41;;;;;;;9.93;3.80;;;16.90;99.90;;;;;;5032164;28;20022;-68
2023/05/18 11:07:11;;;;;;;8.40;3.97;;;17.00;99.90;;;;;;5037600;28;20100;-69
2023/05/18 11:09:41;;;;;;;7.63;3.33;;;17.00;99.90;;;;;;5031251;28;20025;-69
2023/05/18 11:12:19;;;;;;;7.90;3.88;;;17.20;99.90;;;;;;5032355;28;20028;-69
2023/05/18 11:14:52;;;;;;;5.68;3.58;;;17.10;99.90;;;;;;5036240;28;20030;-68
2023/05/18 11:17:21;;;;;;;9.02;3.40;;;17.10;99.90;;;;;;5030512;28;20026;-69
2023/05/18 11:20:05;;;;;;;8.65;3.65;;;17.10;99.90;;;;;;5033247;28;20561;-68
2023/05/18 11:22:57;;;;;;;5.43;3.38;;;17.20;99.90;;;;;;5033017;28;20117;-69
2023/05/18 11:25:31;;;;;;;8.73;5.13;;;17.00;99.90;;;;;;5029747;28;20029;-68
2023/05/18 11:28:03;;;;;;;6.50;3.95;;;16.90;99.90;;;;;;5032339;28;20049;-68
2023/05/18 11:30:33;;;;;;;6.05;3.80;;;16.80;99.90;;;;;;5034798;28;20100;-69
2023/05/18 11:33:09;;;;;;;9.02;3.47;;;16.80;99.90;;;;;;5031538;28;20097;-69
2023/05/18 11:35:53;;;;;;;6.03;3.42;;;16.80;99.90;;;;;;5031081;28;20444;-71
2023/05/18 11:38:19;;;;;;;5.70;3.45;;;16.70;99.90;;;;;;5034344;28;20025;-69
2023/05/18 11:40:47;;;;;;;6.00;3.65;;;16.50;99.90;;;;;;5033166;28;20068;-69
2023/05/18 11:43:23;;;;;;;7.90;3.95;;;16.20;99.90;;;;;;5032936;28;22136;-71
2023/05/18 11:45:56;;;;;;;6.22;3.72;;;16.10;99.90;;;;;;5034049;28;20538;-71
2023/05/18 11:48:25;;;;;;;8.27;3.88;;;16.00;99.90;;;;;;5030222;28;20112;-71
2023/05/18 11:50:57;;;;;;;6.53;3.75;;;15.90;99.90;;;;;;5036268;28;20022;-69
2023/05/18 11:53:25;;;;;;;10.82;3.92;;;15.90;99.90;;;;;;5032852;28;20025;-70
2023/05/18 11:55:55;;;;;;;5.82;3.55;;;16.10;99.90;;;;;;5034819;28;20071;-71
2023/05/18 11:58:23;;;;;;;9.63;4.00;;;16.10;99.90;;;;;;5029921;28;20451;-69
2023/05/18 12:00:50;;;;;;;5.40;3.65;;;16.20;99.90;;;;;;5035439;28;20386;-71
2023/05/18 12:03:16;;;;;;;7.68;3.55;;;16.40;99.90;;;;;;5033940;28;20018;-71
2023/05/18 12:05:48;;;;;;;9.57;4.13;;;16.40;99.90;;;;;;5035981;28;20096;-69
2023/05/18 12:08:20;;;;;;;5.80;3.35;;;16.30;99.90;;;;;;5032835;28;20464;-69
2023/05/18 12:10:47;;;;;;;6.07;3.88;;;16.20;99.90;;;;;;5032694;28;20033;-69
2023/05/18 12:13:16;;;;;;;6.68;3.40;;;16.10;99.90;;;;;;5035189;28;20105;-69
2023/05/18 12:15:42;;;;;;;5.32;3.72;;;16.00;99.90;;;;;;5032335;28;20023;-69
2023/05/18 12:18:09;;;;;;;6.57;3.65;;;15.80;99.90;;;;;;5033753;28;20112;-71
2023/05/18 12:20:38;;;;;;;6.85;3.80;;;15.60;99.90;;;;;;5034673;28;20018;-71
2023/05/18 12:23:04;;;;;;;5.65;3.38;;;15.50;99.90;;;;;;5035409;28;20075;-71
2023/05/18 12:25:29;;;;;;;7.68;3.83;;;15.40;99.90;;;;;;5032948;28;20025;-70
2023/05/18 12:27:55;;;;;;;6.93;3.60;;;15.40;99.90;;;;;;5031936;28;20025;-71
2023/05/18 12:30:23;;;;;;;6.57;4.07;;;15.30;99.90;;;;;;5035679;28;20040;-69
2023/05/18 12:32:53;;;;;;;6.50;4.00;;;15.20;99.90;;;;;;5035083;28;20024;-71
2023/05/18 12:35:26;;;;;;;8.00;4.30;;;15.10;99.90;;;;;;5033973;28;20086;-71
2023/05/18 12:37:54;;;;;;;11.45;4.70;;;15.20;99.90;;;;;;5033291;28;20040;-71
2023/05/18 12:40:21;;;;;;;8.07;3.85;;;15.20;99.90;;;;;;5029087;28;20026;-71
2023/05/18 12:43:02;;;;;;;7.57;3.72;;;15.30;99.90;;;;;;5034227;28;20096;-71
2023/05/18 12:45:31;;;;;;;6.75;4.18;;;15.30;99.90;;;;;;5033566;28;20025;-71
2023/05/18 12:48:07;;;;;;;6.45;3.80;;;15.40;99.90;;;;;;5035430;28;20537;-71
2023/05/18 12:50:33;;;;;;;7.85;4.03;;;15.60;99.90;;;;;;5035416;28;20032;-71
2023/05/18 12:53:00;;;;;;;8.00;4.18;;;15.70;99.90;;;;;;5034275;28;20080;-72